Time;durP1;ratioP1;P1;durP2;ratioP2;P2;SDS_P1;SDS_P2;PMS_P1;PMS_P2;Temp;Humidity;BMP_temperature;BMP_pressure;BME280_temperature;BME280_humidity;BME280_pressure;Samples;Min_cycle;Max_cycle;Signal;HPM_P1;HPM_P2
2021/11/11 00:00:15;;;;;;;31.85;22.42;;;;;;;;;;5055270;28;20646;-75
2021/11/11 00:02:43;;;;;;;42.53;24.00;;;;;;;;;;5055580;28;20199;-75
2021/11/11 00:05:11;;;;;;;36.67;22.05;;;;;;;;;;5055432;28;20196;-75
2021/11/11 00:07:38;;;;;;;33.70;24.45;;;;;;;;;;5055387;28;20199;-75
2021/11/11 00:10:08;;;;;;;40.15;23.98;;;;;;;;;;5054921;28;20199;-75
2021/11/11 00:12:35;;;;;;;34.60;24.65;;;;;;;;;;5055115;28;20216;-76
2021/11/11 00:15:03;;;;;;;36.65;23.08;;;;;;;;;;5055514;28;20203;-75
2021/11/11 00:17:30;;;;;;;34.75;21.70;;;;;;;;;;5055251;28;20228;-77
2021/11/11 00:19:57;;;;;;;37.45;22.67;;;;;;;;;;5055199;28;20228;-76
2021/11/11 00:22:24;;;;;;;33.33;23.30;;;;;;;;;;5054733;28;20205;-77
2021/11/11 00:24:52;;;;;;;34.22;21.50;;;;;;;;;;5054807;28;20629;-75
2021/11/11 00:27:21;;;;;;;42.88;22.92;;;;;;;;;;5054765;28;20215;-76
2021/11/11 00:29:48;;;;;;;30.95;22.30;;;;;;;;;;5054961;28;20277;-76
2021/11/11 00:32:15;;;;;;;32.05;22.30;;;;;;;;;;5054915;28;20650;-76
2021/11/11 00:34:43;;;;;;;37.30;23.25;;;;;;;;;;5054932;28;20196;-75
2021/11/11 00:37:10;;;;;;;39.78;23.77;;;;;;;;;;5054728;28;20201;-75
2021/11/11 00:39:37;;;;;;;34.55;23.33;;;;;;;;;;5054870;28;20501;-75
2021/11/11 00:42:05;;;;;;;26.65;21.55;;;;;;;;;;5054211;28;20199;-76
2021/11/11 00:44:33;;;;;;;34.20;22.17;;;;;;;;;;5054703;28;20195;-76
2021/11/11 00:47:00;;;;;;;40.83;24.52;;;;;;;;;;5054296;28;20291;-76
2021/11/11 00:49:28;;;;;;;33.85;20.98;;;;;;;;;;5054277;28;20205;-76
2021/11/11 00:51:55;;;;;;;43.92;22.60;;;;;;;;;;5054458;28;20246;-76
2021/11/11 00:54:22;;;;;;;38.50;23.48;;;;;;;;;;5054730;28;20183;-77
2021/11/11 00:56:50;;;;;;;39.20;21.55;;;;;;;;;;5054174;28;20200;-76
2021/11/11 00:59:17;;;;;;;35.25;22.67;;;;;;;;;;5054254;28;20661;-76
2021/11/11 01:01:45;;;;;;;29.65;21.35;;;;;;;;;;5054332;28;20196;-76
2021/11/11 01:04:13;;;;;;;35.85;22.50;;;;;;;;;;5054015;28;20667;-77
2021/11/11 01:06:40;;;;;;;39.03;24.58;;;;;;;;;;5054012;28;20239;-77
2021/11/11 01:09:07;;;;;;;35.00;21.85;;;;;;;;;;5054428;28;20197;-78
2021/11/11 01:11:34;;;;;;;43.28;22.15;;;;;;;;;;5053521;28;20205;-77
2021/11/11 01:14:02;;;;;;;30.60;22.58;;;;;;;;;;5053786;28;20205;-77
2021/11/11 01:16:29;;;;;;;36.97;23.85;;;;;;;;;;5054019;28;20283;-76
2021/11/11 01:18:58;;;;;;;39.55;25.30;;;;;;;;;;5053947;28;20202;-76
2021/11/11 01:21:25;;;;;;;38.38;25.83;;;;;;;;;;5054029;28;20688;-78
2021/11/11 01:23:53;;;;;;;45.88;26.58;;;;;;;;;;5053666;28;20201;-77
2021/11/11 01:26:20;;;;;;;44.03;29.00;;;;;;;;;;5053446;28;20225;-76
2021/11/11 01:28:47;;;;;;;42.42;27.20;;;;;;;;;;5053984;28;20548;-76
2021/11/11 01:31:15;;;;;;;45.47;27.77;;;;;;;;;;5053773;28;20191;-76
2021/11/11 01:33:45;;;;;;;44.05;27.08;;;;;;;;;;5053821;28;20280;-75
2021/11/11 01:36:13;;;;;;;41.53;26.75;;;;;;;;;;5053509;28;20191;-76
2021/11/11 01:38:41;;;;;;;51.78;28.75;;;;;;;;;;5053829;28;20202;-75
2021/11/11 01:41:08;;;;;;;47.25;29.17;;;;;;;;;;5053520;28;20306;-76
2021/11/11 01:43:35;;;;;;;53.08;27.52;;;;;;;;;;5053977;28;20201;-76
2021/11/11 01:46:02;;;;;;;39.45;25.98;;;;;;;;;;5053159;28;20201;-76
2021/11/11 01:48:30;;;;;;;42.83;26.40;;;;;;;;;;5053120;28;20273;-75
2021/11/11 01:50:57;;;;;;;39.83;25.77;;;;;;;;;;5053135;28;20203;-75
2021/11/11 01:53:26;;;;;;;39.75;24.15;;;;;;;;;;5053387;28;20230;-76
2021/11/11 01:55:53;;;;;;;38.70;25.73;;;;;;;;;;5052497;28;20195;-75
2021/11/11 01:58:21;;;;;;;43.88;24.92;;;;;;;;;;5053457;28;20290;-75
2021/11/11 02:00:49;;;;;;;38.58;24.73;;;;;;;;;;5053372;28;20206;-77
2021/11/11 02:03:16;;;;;;;40.05;24.52;;;;;;;;;;5052948;28;20203;-77
2021/11/11 02:05:45;;;;;;;43.53;27.08;;;;;;;;;;5053682;28;20200;-76
2021/11/11 02:08:12;;;;;;;47.92;26.67;;;;;;;;;;5053396;28;20195;-76
2021/11/11 02:10:41;;;;;;;38.35;24.33;;;;;;;;;;5053566;28;20200;-76
2021/11/11 02:13:08;;;;;;;43.65;24.90;;;;;;;;;;5053623;28;20214;-76
2021/11/11 02:15:36;;;;;;;43.38;24.70;;;;;;;;;;5053576;28;20194;-76
2021/11/11 02:18:03;;;;;;;48.75;26.42;;;;;;;;;;5053526;28;20201;-77
2021/11/11 02:20:33;;;;;;;41.65;26.55;;;;;;;;;;5053358;28;20290;-76
2021/11/11 02:23:02;;;;;;;42.88;24.63;;;;;;;;;;5053814;28;20202;-77
2021/11/11 02:25:29;;;;;;;44.40;26.55;;;;;;;;;;5053156;28;20195;-75
2021/11/11 02:27:58;;;;;;;37.80;25.52;;;;;;;;;;5053800;28;20260;-76
2021/11/11 02:30:26;;;;;;;36.67;24.30;;;;;;;;;;5053449;28;20233;-76
2021/11/11 02:32:53;;;;;;;42.63;26.60;;;;;;;;;;5053316;28;20216;-76
2021/11/11 02:35:21;;;;;;;37.50;24.15;;;;;;;;;;5053159;28;20196;-76
2021/11/11 02:37:50;;;;;;;41.75;24.73;;;;;;;;;;5053525;28;20537;-77
2021/11/11 02:40:18;;;;;;;33.72;24.00;;;;;;;;;;5053547;28;20194;-78
2021/11/11 02:42:46;;;;;;;38.88;25.30;;;;;;;;;;5054327;28;20318;-77
2021/11/11 02:45:16;;;;;;;30.30;23.55;;;;;;;;;;5055719;28;20226;-77
2021/11/11 02:47:43;;;;;;;40.63;26.33;;;;;;;;;;5059295;28;20199;-78
2021/11/11 02:50:11;;;;;;;33.28;23.42;;;;;;;;;;5053814;28;20192;-76
2021/11/11 02:52:39;;;;;;;43.63;26.25;;;;;;;;;;5053462;28;20248;-76
2021/11/11 02:55:08;;;;;;;32.40;23.02;;;;;;;;;;5053669;28;20201;-78
2021/11/11 02:57:36;;;;;;;44.05;25.75;;;;;;;;;;5053672;28;20641;-77
2021/11/11 03:00:08;;;;;;;34.38;23.88;;;;;;;;;;5053308;28;20199;-77
2021/11/11 03:02:38;;;;;;;35.53;24.25;;;;;;;;;;5052920;28;20183;-76
2021/11/11 03:05:06;;;;;;;31.52;23.45;;;;;;;;;;5052880;28;20184;-78
2021/11/11 03:07:33;;;;;;;40.60;26.17;;;;;;;;;;5056853;28;20289;-76
2021/11/11 03:10:00;;;;;;;45.92;23.75;;;;;;;;;;5057271;28;20202;-77
2021/11/11 03:12:29;;;;;;;38.30;24.27;;;;;;;;;;5057427;28;20245;-77
2021/11/11 03:14:56;;;;;;;33.20;23.33;;;;;;;;;;5057016;28;20204;-77
2021/11/11 03:17:24;;;;;;;39.08;23.13;;;;;;;;;;5056749;28;20675;-76
2021/11/11 03:19:51;;;;;;;45.08;23.02;;;;;;;;;;5057186;28;20385;-77
2021/11/11 03:22:20;;;;;;;36.53;22.25;;;;;;;;;;5057126;28;20275;-77
2021/11/11 03:24:47;;;;;;;32.60;21.00;;;;;;;;;;5056643;28;20202;-77
2021/11/11 03:27:15;;;;;;;34.25;23.20;;;;;;;;;;5056764;28;20201;-77
2021/11/11 03:29:45;;;;;;;35.28;22.67;;;;;;;;;;5056275;28;20201;-77
2021/11/11 03:32:13;;;;;;;33.83;22.02;;;;;;;;;;5056412;28;20194;-77
2021/11/11 03:34:40;;;;;;;38.00;22.38;;;;;;;;;;5056388;28;20249;-76
2021/11/11 03:37:08;;;;;;;33.17;24.63;;;;;;;;;;5056802;28;20286;-76
2021/11/11 03:39:35;;;;;;;33.13;22.95;;;;;;;;;;5056350;28;20195;-76
2021/11/11 03:42:03;;;;;;;34.05;22.73;;;;;;;;;;5056308;28;20203;-76
2021/11/11 03:44:30;;;;;;;39.90;20.52;;;;;;;;;;5055964;28;20294;-76
2021/11/11 03:47:00;;;;;;;29.92;21.13;;;;;;;;;;5056198;28;20223;-76
2021/11/11 03:49:28;;;;;;;35.95;19.88;;;;;;;;;;5055921;28;20629;-76
2021/11/11 03:51:55;;;;;;;33.38;21.52;;;;;;;;;;5055783;28;20274;-76
2021/11/11 03:54:24;;;;;;;32.20;22.92;;;;;;;;;;5056590;28;20215;-76
2021/11/11 03:56:55;;;;;;;33.22;22.42;;;;;;;;;;5055991;28;20199;-76
2021/11/11 03:59:22;;;;;;;34.30;21.65;;;;;;;;;;5055732;28;20194;-76
2021/11/11 04:01:49;;;;;;;29.83;20.98;;;;;;;;;;5055907;28;20227;-78
2021/11/11 04:04:18;;;;;;;32.60;21.58;;;;;;;;;;5055873;28;20207;-77
2021/11/11 04:06:45;;;;;;;34.60;21.83;;;;;;;;;;5055790;28;20201;-77
2021/11/11 04:09:12;;;;;;;35.10;20.73;;;;;;;;;;5056180;28;20285;-77
2021/11/11 04:11:40;;;;;;;32.15;20.80;;;;;;;;;;5055560;28;20199;-78
2021/11/11 04:14:07;;;;;;;31.33;22.83;;;;;;;;;;5055467;28;20245;-77
2021/11/11 04:16:35;;;;;;;33.70;20.27;;;;;;;;;;5055455;28;20280;-77
2021/11/11 04:19:03;;;;;;;34.80;22.90;;;;;;;;;;5054143;28;20282;-77
2021/11/11 04:21:32;;;;;;;36.25;22.23;;;;;;;;;;5054849;28;20257;-76
2021/11/11 04:23:59;;;;;;;34.20;23.05;;;;;;;;;;5054861;28;20238;-76
2021/11/11 04:26:28;;;;;;;33.58;22.90;;;;;;;;;;5055157;28;20748;-76
2021/11/11 04:28:58;;;;;;;38.95;22.23;;;;;;;;;;5055167;28;20245;-77
2021/11/11 04:31:27;;;;;;;33.72;23.02;;;;;;;;;;5055380;28;20184;-76
2021/11/11 04:33:57;;;;;;;32.10;21.40;;;;;;;;;;5055497;28;20219;-77
2021/11/11 04:36:57;;;;;;;41.60;24.92;;;;;;;;;;5063299;28;20211;-77
2021/11/11 04:42:26;;;;;;;41.03;25.40;;;;;;;;;;5054795;28;20210;-77
2021/11/11 04:45:04;;;;;;;36.42;22.77;;;;;;;;;;5055423;28;20274;-77
2021/11/11 04:47:43;;;;;;;35.80;21.77;;;;;;;;;;5054721;28;20203;-76
2021/11/11 04:50:41;;;;;;;29.48;21.55;;;;;;;;;;5054948;28;20205;-77
2021/11/11 05:01:25;;;;;;;40.45;22.65;;;;;;;;;;5054571;28;20274;-76
2021/11/11 05:03:52;;;;;;;41.88;23.70;;;;;;;;;;5054621;28;20552;-76
2021/11/11 05:06:20;;;;;;;35.65;24.63;;;;;;;;;;5054687;28;20203;-77
2021/11/11 05:08:47;;;;;;;33.50;24.33;;;;;;;;;;5054004;28;20221;-77
2021/11/11 05:11:16;;;;;;;32.45;21.83;;;;;;;;;;5054294;28;20228;-76
2021/11/11 05:13:43;;;;;;;35.40;20.92;;;;;;;;;;5054052;28;20567;-79
2021/11/11 05:16:10;;;;;;;37.80;21.00;;;;;;;;;;5054342;28;20195;-76
2021/11/11 05:18:37;;;;;;;35.53;21.10;;;;;;;;;;5054271;28;20226;-75
2021/11/11 05:21:05;;;;;;;27.65;19.60;;;;;;;;;;5053970;28;20645;-75
2021/11/11 05:23:33;;;;;;;30.50;19.48;;;;;;;;;;5054084;28;20203;-75
2021/11/11 05:26:00;;;;;;;34.35;21.45;;;;;;;;;;5054316;28;20196;-75
2021/11/11 05:28:29;;;;;;;41.13;19.90;;;;;;;;;;5053988;28;20290;-76
2021/11/11 05:30:56;;;;;;;30.63;19.95;;;;;;;;;;5059348;28;20198;-78
2021/11/11 05:33:23;;;;;;;32.15;21.35;;;;;;;;;;5073971;28;20214;-77
2021/11/11 05:35:51;;;;;;;34.47;20.95;;;;;;;;;;5073886;28;20194;-75
2021/11/11 05:38:18;;;;;;;36.03;20.48;;;;;;;;;;5073591;28;20707;-76
2021/11/11 05:40:45;;;;;;;29.77;17.92;;;;;;;;;;5073240;28;20770;-75
2021/11/11 05:43:13;;;;;;;28.15;19.92;;;;;;;;;;5073143;28;20248;-76
2021/11/11 05:45:41;;;;;;;31.25;19.50;;;;;;;;;;5073259;28;20281;-75
2021/11/11 05:48:09;;;;;;;35.05;19.77;;;;;;;;;;5073443;28;20711;-75
2021/11/11 05:50:37;;;;;;;31.08;20.63;;;;;;;;;;5072998;28;20237;-75
2021/11/11 05:53:04;;;;;;;31.50;19.65;;;;;;;;;;5073008;28;20231;-75
2021/11/11 05:55:32;;;;;;;37.17;20.27;;;;;;;;;;5073113;28;20280;-76
2021/11/11 05:57:59;;;;;;;31.55;20.42;;;;;;;;;;5073563;28;20229;-74
2021/11/11 06:00:26;;;;;;;32.10;20.67;;;;;;;;;;5073091;28;20223;-76
2021/11/11 06:02:55;;;;;;;27.10;19.98;;;;;;;;;;5072142;28;20289;-76
2021/11/11 06:05:25;;;;;;;28.52;20.30;;;;;;;;;;5073357;28;20196;-77
2021/11/11 06:07:52;;;;;;;31.55;19.45;;;;;;;;;;5073343;28;20469;-77
2021/11/11 06:10:20;;;;;;;27.80;19.27;;;;;;;;;;5073432;28;20226;-76
2021/11/11 06:12:47;;;;;;;29.30;20.13;;;;;;;;;;5072579;28;20202;-76
2021/11/11 06:15:14;;;;;;;32.20;18.77;;;;;;;;;;5073017;28;20679;-77
2021/11/11 06:17:43;;;;;;;31.52;18.73;;;;;;;;;;5073881;28;20280;-77
2021/11/11 06:20:19;;;;;;;34.28;19.10;;;;;;;;;;5072569;28;20290;-76
2021/11/11 06:22:47;;;;;;;29.00;18.95;;;;;;;;;;5072617;28;20193;-75
2021/11/11 06:25:14;;;;;;;35.13;21.77;;;;;;;;;;5072109;28;20204;-77
2021/11/11 06:27:41;;;;;;;29.38;20.13;;;;;;;;;;5072413;28;20259;-74
2021/11/11 06:30:09;;;;;;;26.40;18.60;;;;;;;;;;5072400;28;20653;-77
2021/11/11 06:32:37;;;;;;;30.60;20.00;;;;;;;;;;5071807;28;20567;-77
2021/11/11 06:35:04;;;;;;;31.85;18.83;;;;;;;;;;5072894;28;20249;-77
2021/11/11 06:37:33;;;;;;;28.50;19.95;;;;;;;;;;5074185;28;20695;-78
2021/11/11 06:40:00;;;;;;;37.00;22.52;;;;;;;;;;5073346;28;20597;-68
2021/11/11 06:42:27;;;;;;;32.42;20.67;;;;;;;;;;5076384;28;20199;-77
2021/11/11 06:44:56;;;;;;;30.45;21.02;;;;;;;;;;5077101;28;20203;-77
2021/11/11 06:47:23;;;;;;;30.52;20.95;;;;;;;;;;5077053;28;20198;-76
2021/11/11 06:49:51;;;;;;;28.75;19.67;;;;;;;;;;5077203;28;20558;-77
2021/11/11 06:52:18;;;;;;;34.80;21.13;;;;;;;;;;5076844;28;20571;-76
2021/11/11 06:54:47;;;;;;;30.63;19.25;;;;;;;;;;5076557;28;20216;-78
2021/11/11 06:57:14;;;;;;;35.47;20.23;;;;;;;;;;5077290;28;20741;-78
2021/11/11 06:59:41;;;;;;;37.05;21.33;;;;;;;;;;5076527;28;20194;-77
2021/11/11 07:02:09;;;;;;;33.92;20.33;;;;;;;;;;5076541;28;20285;-76
2021/11/11 07:04:36;;;;;;;30.67;21.92;;;;;;;;;;5076338;28;20203;-77
2021/11/11 07:07:04;;;;;;;27.63;20.20;;;;;;;;;;5077399;28;20190;-76
2021/11/11 07:09:31;;;;;;;29.73;20.50;;;;;;;;;;5077220;28;20617;-77
2021/11/11 07:12:00;;;;;;;39.33;21.00;;;;;;;;;;5076260;28;20195;-78
2021/11/11 07:14:27;;;;;;;35.50;21.63;;;;;;;;;;5076614;28;20309;-77
2021/11/11 07:16:54;;;;;;;31.92;19.80;;;;;;;;;;5076783;28;20296;-77
2021/11/11 07:19:21;;;;;;;31.10;20.42;;;;;;;;;;5076079;28;20293;-78
2021/11/11 07:21:50;;;;;;;42.83;22.75;;;;;;;;;;5076530;28;20301;-77
2021/11/11 07:24:17;;;;;;;37.30;23.13;;;;;;;;;;5077109;28;20202;-76
2021/11/11 07:26:44;;;;;;;37.67;22.23;;;;;;;;;;5076422;28;20201;-78
2021/11/11 07:29:13;;;;;;;31.60;21.85;;;;;;;;;;5075974;28;20290;-78
2021/11/11 07:31:40;;;;;;;34.22;21.63;;;;;;;;;;5075962;28;20199;-76
2021/11/11 07:34:08;;;;;;;36.22;22.95;;;;;;;;;;5076171;28;20222;-77
2021/11/11 07:36:37;;;;;;;34.80;21.75;;;;;;;;;;5075923;28;20190;-76
2021/11/11 07:39:04;;;;;;;32.72;22.00;;;;;;;;;;5076078;28;20200;-77
2021/11/11 07:41:33;;;;;;;41.10;21.50;;;;;;;;;;5075836;28;20190;-77
2021/11/11 07:44:00;;;;;;;29.90;21.55;;;;;;;;;;5075813;28;20202;-76
2021/11/11 07:46:29;;;;;;;35.35;23.08;;;;;;;;;;5076627;28;20222;-77
2021/11/11 07:48:56;;;;;;;27.17;21.45;;;;;;;;;;5075948;28;20201;-77
2021/11/11 07:51:23;;;;;;;32.55;21.42;;;;;;;;;;5076138;28;20654;-78
2021/11/11 07:53:50;;;;;;;30.23;21.80;;;;;;;;;;5075427;28;20325;-77
2021/11/11 07:56:18;;;;;;;32.80;22.08;;;;;;;;;;5075697;28;20296;-76
2021/11/11 07:58:45;;;;;;;39.13;24.00;;;;;;;;;;5075845;28;20277;-77
2021/11/11 08:01:12;;;;;;;35.33;23.50;;;;;;;;;;5075457;28;20277;-77
2021/11/11 08:03:41;;;;;;;37.85;23.73;;;;;;;;;;5075418;28;20293;-79
2021/11/11 08:06:08;;;;;;;35.47;23.30;;;;;;;;;;5075897;28;20639;-77
2021/11/11 08:08:35;;;;;;;33.53;20.35;;;;;;;;;;5075326;28;20208;-78
2021/11/11 08:11:03;;;;;;;32.10;21.90;;;;;;;;;;5075234;28;20686;-77
2021/11/11 08:13:30;;;;;;;30.45;21.25;;;;;;;;;;5075696;28;20268;-77
2021/11/11 08:15:57;;;;;;;28.80;21.20;;;;;;;;;;5075687;28;20312;-78
2021/11/11 08:18:25;;;;;;;36.38;23.15;;;;;;;;;;5076125;28;20633;-79
2021/11/11 08:20:54;;;;;;;43.63;21.98;;;;;;;;;;5076389;28;20281;-77
2021/11/11 08:23:22;;;;;;;33.38;21.50;;;;;;;;;;5075272;28;20195;-78
2021/11/11 08:25:52;;;;;;;33.20;22.33;;;;;;;;;;5075713;28;20293;-77
2021/11/11 08:28:20;;;;;;;34.10;22.33;;;;;;;;;;5075825;28;20532;-77
2021/11/11 08:30:48;;;;;;;38.05;23.15;;;;;;;;;;5074778;28;20229;-77
2021/11/11 08:33:15;;;;;;;37.60;22.23;;;;;;;;;;5074879;28;20644;-77
2021/11/11 08:35:43;;;;;;;33.63;22.52;;;;;;;;;;5075632;28;20577;-78
2021/11/11 08:38:12;;;;;;;36.08;20.90;;;;;;;;;;5075538;28;20191;-77
2021/11/11 08:40:40;;;;;;;31.70;22.02;;;;;;;;;;5074566;28;20285;-77
2021/11/11 08:43:07;;;;;;;33.38;21.88;;;;;;;;;;5075154;28;20294;-76
2021/11/11 08:45:35;;;;;;;35.35;20.77;;;;;;;;;;5074867;28;20302;-77
2021/11/11 08:48:03;;;;;;;42.40;22.90;;;;;;;;;;5074748;28;20282;-77
2021/11/11 08:50:31;;;;;;;29.02;20.83;;;;;;;;;;5074815;28;20640;-77
2021/11/11 08:52:58;;;;;;;34.70;19.70;;;;;;;;;;5074808;28;20227;-79
2021/11/11 08:55:30;;;;;;;27.95;20.85;;;;;;;;;;5074499;28;20309;-77
2021/11/11 08:57:58;;;;;;;33.20;22.25;;;;;;;;;;5075019;28;20191;-78
2021/11/11 09:00:27;;;;;;;32.53;20.45;;;;;;;;;;5074629;28;20193;-78
2021/11/11 09:02:56;;;;;;;35.30;20.42;;;;;;;;;;5074670;28;20197;-78
2021/11/11 09:05:24;;;;;;;40.10;20.70;;;;;;;;;;5074125;28;20195;-77
2021/11/11 09:07:51;;;;;;;32.03;21.55;;;;;;;;;;5074073;28;20198;-77
2021/11/11 09:10:20;;;;;;;35.72;21.45;;;;;;;;;;5074298;28;20328;-77
2021/11/11 09:12:48;;;;;;;40.88;23.25;;;;;;;;;;5073948;28;20289;-79
2021/11/11 09:15:17;;;;;;;37.75;23.05;;;;;;;;;;5074720;28;20379;-78
2021/11/11 09:17:44;;;;;;;34.60;22.17;;;;;;;;;;5075014;28;20285;-77
2021/11/11 09:20:12;;;;;;;33.95;22.90;;;;;;;;;;5074496;28;20233;-78
2021/11/11 09:22:40;;;;;;;29.27;20.77;;;;;;;;;;5074734;28;20293;-77
2021/11/11 09:25:08;;;;;;;43.25;24.23;;;;;;;;;;5073691;28;20204;-79
2021/11/11 09:27:36;;;;;;;34.45;21.70;;;;;;;;;;5073962;28;20196;-78
2021/11/11 09:30:06;;;;;;;34.65;22.40;;;;;;;;;;5073972;28;20200;-77
2021/11/11 09:32:33;;;;;;;42.22;22.58;;;;;;;;;;5073579;28;20192;-77
2021/11/11 09:35:00;;;;;;;36.17;24.20;;;;;;;;;;5073817;28;20269;-78
2021/11/11 09:37:28;;;;;;;46.58;22.70;;;;;;;;;;5073537;28;20311;-78
2021/11/11 09:39:55;;;;;;;38.63;24.42;;;;;;;;;;5073453;28;20201;-77
2021/11/11 09:42:24;;;;;;;29.42;21.17;;;;;;;;;;5073761;28;20195;-77
2021/11/11 09:44:51;;;;;;;31.70;21.35;;;;;;;;;;5074141;28;20289;-77
2021/11/11 09:47:20;;;;;;;32.00;20.98;;;;;;;;;;5073498;28;20206;-78
2021/11/11 09:49:48;;;;;;;29.70;21.05;;;;;;;;;;5073725;28;20621;-77
2021/11/11 09:52:16;;;;;;;33.30;21.50;;;;;;;;;;5073928;28;20692;-77
2021/11/11 10:00:13;;;;;;;32.92;20.88;;;;;;;;;;5073433;28;20542;-78
2021/11/11 10:02:43;;;;;;;30.83;21.10;;;;;;;;;;5073547;28;20222;-78
2021/11/11 10:05:11;;;;;;;28.33;21.23;;;;;;;;;;5073133;28;20205;-78
2021/11/11 10:07:38;;;;;;;39.22;21.70;;;;;;;;;;5073188;28;20205;-78
2021/11/11 10:10:06;;;;;;;31.48;21.70;;;;;;;;;;5073932;28;20266;-77
2021/11/11 10:12:34;;;;;;;30.33;20.05;;;;;;;;;;5073117;28;20202;-79
2021/11/11 10:15:08;;;;;;;35.33;21.52;;;;;;;;;;5072877;28;20292;-77
2021/11/11 10:17:41;;;;;;;34.47;21.75;;;;;;;;;;5073068;28;20634;-78
2021/11/11 10:20:10;;;;;;;36.28;24.02;;;;;;;;;;5073600;28;20533;-78
2021/11/11 10:22:40;;;;;;;38.75;21.67;;;;;;;;;;5073739;28;20642;-77
2021/11/11 10:25:11;;;;;;;32.00;21.63;;;;;;;;;;5073213;28;20288;-77
2021/11/11 10:27:42;;;;;;;38.30;23.70;;;;;;;;;;5073687;28;20707;-77
2021/11/11 10:30:12;;;;;;;37.17;23.75;;;;;;;;;;5074047;28;20216;-77
2021/11/11 10:32:39;;;;;;;39.70;21.27;;;;;;;;;;5073325;28;20195;-77
2021/11/11 10:35:08;;;;;;;34.55;22.25;;;;;;;;;;5073073;28;20220;-77
2021/11/11 10:37:44;;;;;;;36.03;22.50;;;;;;;;;;5073211;28;20193;-78
2021/11/11 10:40:13;;;;;;;36.45;24.10;;;;;;;;;;5072922;28;20184;-77
2021/11/11 10:42:42;;;;;;;36.72;23.05;;;;;;;;;;5073105;28;20279;-78
2021/11/11 10:45:11;;;;;;;35.72;23.70;;;;;;;;;;5072933;28;20203;-78
2021/11/11 10:47:39;;;;;;;35.65;22.58;;;;;;;;;;5073086;28;20243;-77
2021/11/11 10:50:09;;;;;;;35.58;24.23;;;;;;;;;;5072952;28;20196;-77
2021/11/11 10:52:38;;;;;;;43.00;22.88;;;;;;;;;;5072824;28;20239;-78
2021/11/11 10:55:15;;;;;;;41.05;24.30;;;;;;;;;;5072477;28;20763;-78
2021/11/11 10:57:45;;;;;;;40.10;24.58;;;;;;;;;;5073210;28;20545;-78
2021/11/11 11:00:15;;;;;;;39.17;24.10;;;;;;;;;;5072874;28;20279;-78
2021/11/11 11:02:56;;;;;;;41.30;25.13;;;;;;;;;;5072572;28;20200;-78
2021/11/11 11:05:24;;;;;;;40.38;25.80;;;;;;;;;;5072814;28;20270;-77
2021/11/11 11:07:55;;;;;;;37.47;23.15;;;;;;;;;;5073259;28;20204;-77
2021/11/11 11:10:24;;;;;;;44.00;23.85;;;;;;;;;;5073410;28;20186;-77
2021/11/11 11:12:51;;;;;;;33.00;25.73;;;;;;;;;;5072769;28;20196;-78
2021/11/11 11:15:39;;;;;;;39.63;24.55;;;;;;;;;;5073061;28;20336;-78
2021/11/11 11:18:07;;;;;;;41.67;24.35;;;;;;;;;;5072951;28;20300;-77
2021/11/11 11:20:35;;;;;;;48.65;26.77;;;;;;;;;;5072942;28;20198;-77
2021/11/11 11:23:16;;;;;;;43.33;25.35;;;;;;;;;;5072728;28;20555;-78
2021/11/11 11:25:56;;;;;;;38.05;24.80;;;;;;;;;;5072419;28;20186;-77
2021/11/11 11:28:25;;;;;;;39.95;25.30;;;;;;;;;;5075559;28;20190;-77
2021/11/11 11:30:54;;;;;;;37.92;23.92;;;;;;;;;;5076385;28;20650;-78
2021/11/11 11:33:30;;;;;;;40.20;24.13;;;;;;;;;;5077306;28;20654;-77
2021/11/11 11:35:58;;;;;;;40.55;25.10;;;;;;;;;;5076615;28;20261;-77
2021/11/11 11:38:25;;;;;;;40.33;26.83;;;;;;;;;;5077608;28;20619;-77
2021/11/11 11:40:52;;;;;;;43.40;26.60;;;;;;;;;;5077276;28;20190;-77
2021/11/11 11:43:28;;;;;;;41.78;23.85;;;;;;;;;;5077402;28;20223;-78
2021/11/11 11:45:56;;;;;;;39.90;26.58;;;;;;;;;;5078013;28;20181;-77
2021/11/11 11:48:24;;;;;;;38.63;27.52;;;;;;;;;;5077187;28;20284;-78
2021/11/11 11:50:59;;;;;;;47.90;30.77;;;;;;;;;;5076387;28;20197;-78
2021/11/11 11:53:28;;;;;;;48.05;31.15;;;;;;;;;;5076219;28;20239;-77
2021/11/11 11:56:00;;;;;;;40.05;26.98;;;;;;;;;;5075410;28;20306;-77
2021/11/11 11:58:40;;;;;;;44.13;28.05;;;;;;;;;;5076107;28;20307;-77
2021/11/11 12:01:17;;;;;;;43.85;26.98;;;;;;;;;;5076053;28;20196;-77
2021/11/11 12:03:53;;;;;;;45.05;29.75;;;;;;;;;;5075835;28;20186;-78
2021/11/11 12:06:44;;;;;;;40.25;26.20;;;;;;;;;;5075490;28;20196;-77
2021/11/11 12:09:23;;;;;;;40.53;26.67;;;;;;;;;;5075863;28;20192;-79
2021/11/11 12:12:07;;;;;;;38.20;26.73;;;;;;;;;;5075711;28;20439;-77
2021/11/11 12:14:40;;;;;;;39.97;25.05;;;;;;;;;;5075795;28;20273;-78
2021/11/11 12:28:40;;;;;;;35.75;25.30;;;;;;;;;;5075263;28;20548;-78
2021/11/11 12:39:40;;;;;;;35.65;25.70;;;;;;;;;;5074070;28;20179;-78
2021/11/11 12:42:13;;;;;;;42.88;26.65;;;;;;;;;;5075239;28;20605;-78
2021/11/11 12:44:55;;;;;;;38.90;25.27;;;;;;;;;;5075417;28;20292;-78
2021/11/11 12:47:33;;;;;;;31.27;24.08;;;;;;;;;;5074995;28;20209;-77
2021/11/11 12:50:15;;;;;;;35.13;24.67;;;;;;;;;;5074514;28;20276;-78
2021/11/11 12:52:42;;;;;;;35.75;25.08;;;;;;;;;;5074391;28;20312;-77
2021/11/11 12:55:17;;;;;;;43.03;26.05;;;;;;;;;;5074674;28;20197;-78
2021/11/11 12:57:58;;;;;;;41.08;25.77;;;;;;;;;;5074923;28;20231;-78
2021/11/11 13:00:37;;;;;;;34.65;24.00;;;;;;;;;;5074889;28;20199;-78
2021/11/11 13:03:06;;;;;;;34.53;24.65;;;;;;;;;;5074111;28;20200;-80
2021/11/11 13:05:47;;;;;;;41.10;26.67;;;;;;;;;;5074620;28;20318;-71
2021/11/11 13:08:14;;;;;;;38.75;24.70;;;;;;;;;;5074110;28;20285;-79
2021/11/11 13:10:53;;;;;;;38.38;27.05;;;;;;;;;;5074424;28;20197;-78
2021/11/11 13:13:25;;;;;;;38.15;25.35;;;;;;;;;;5074413;28;20596;-78
2021/11/11 13:15:56;;;;;;;42.42;28.48;;;;;;;;;;5075138;28;20304;-77
2021/11/11 13:18:47;;;;;;;36.08;26.92;;;;;;;;;;5074621;28;20258;-82
2021/11/11 13:21:17;;;;;;;36.58;26.60;;;;;;;;;;5074454;28;20198;-81
2021/11/11 13:23:50;;;;;;;38.28;26.83;;;;;;;;;;5072875;28;20286;-84
2021/11/11 14:00:56;;;;;;;41.17;29.20;;;;;;;;;;5073123;28;20223;-85
2021/11/11 15:45:29;;;;;;;42.47;29.77;;;;;;;;;;5075862;28;20186;-80
2021/11/11 16:01:48;;;;;;;42.35;29.40;;;;;;;;;;5075007;28;20263;-84
2021/11/11 16:20:56;;;;;;;46.33;30.43;;;;;;;;;;5074427;28;20434;-80
2021/11/11 16:23:44;;;;;;;42.30;30.00;;;;;;;;;;5074523;28;20447;-79
2021/11/11 16:26:14;;;;;;;44.45;30.75;;;;;;;;;;5074840;28;20432;-80
2021/11/11 16:28:45;;;;;;;40.83;28.40;;;;;;;;;;5074738;28;20292;-78
2021/11/11 16:31:13;;;;;;;40.47;28.70;;;;;;;;;;5074126;28;20518;-78
2021/11/11 16:33:40;;;;;;;44.03;29.23;;;;;;;;;;5082758;28;20619;-77
2021/11/11 16:36:07;;;;;;;42.38;27.65;;;;;;;;;;5095379;28;20305;-77
2021/11/11 16:38:37;;;;;;;39.38;27.73;;;;;;;;;;5094528;28;20193;-77
2021/11/11 16:41:04;;;;;;;44.42;31.05;;;;;;;;;;5094954;28;20305;-77
2021/11/11 16:43:32;;;;;;;51.10;31.00;;;;;;;;;;5094506;28;20285;-77
2021/11/11 16:45:59;;;;;;;47.28;29.65;;;;;;;;;;5095159;28;20653;-77
2021/11/11 16:48:26;;;;;;;42.28;27.98;;;;;;;;;;5094570;28;20203;-77
2021/11/11 16:50:54;;;;;;;46.37;30.13;;;;;;;;;;5094410;28;20645;-77
2021/11/11 16:53:35;;;;;;;42.47;30.60;;;;;;;;;;5095164;28;20475;-77
2021/11/11 16:56:04;;;;;;;55.00;32.70;;;;;;;;;;5094386;28;20216;-77
2021/11/11 16:58:31;;;;;;;43.63;28.35;;;;;;;;;;5094787;28;20204;-78
2021/11/11 17:00:58;;;;;;;44.37;29.13;;;;;;;;;;5094437;28;20242;-78
2021/11/11 17:03:26;;;;;;;46.20;30.02;;;;;;;;;;5094872;28;20471;-78
2021/11/11 17:05:54;;;;;;;52.50;34.13;;;;;;;;;;5094382;28;20200;-79
2021/11/11 17:08:21;;;;;;;49.33;29.88;;;;;;;;;;5094631;28;20550;-77
2021/11/11 17:10:48;;;;;;;47.45;30.98;;;;;;;;;;5094728;28;20233;-78
2021/11/11 17:13:17;;;;;;;54.38;31.38;;;;;;;;;;5094587;28;20596;-77
2021/11/11 17:15:45;;;;;;;54.08;30.30;;;;;;;;;;5094977;28;20291;-78
2021/11/11 17:18:13;;;;;;;45.15;31.05;;;;;;;;;;5094124;28;20225;-77
2021/11/11 17:20:41;;;;;;;39.83;28.55;;;;;;;;;;5094211;28;20232;-77
2021/11/11 17:23:11;;;;;;;51.73;31.63;;;;;;;;;;5094324;28;20196;-77
2021/11/11 17:25:40;;;;;;;48.17;31.05;;;;;;;;;;5094062;28;20474;-78
2021/11/11 17:28:27;;;;;;;43.42;30.08;;;;;;;;;;5095254;28;20239;-79
2021/11/11 17:30:56;;;;;;;48.00;29.85;;;;;;;;;;5099426;28;20279;-79
2021/11/11 17:33:24;;;;;;;43.27;28.10;;;;;;;;;;5097550;28;20232;-83
2021/11/11 17:35:52;;;;;;;45.40;28.98;;;;;;;;;;5094061;28;20442;-82
2021/11/11 17:38:20;;;;;;;40.92;28.40;;;;;;;;;;5093809;28;20244;-81
2021/11/11 17:40:52;;;;;;;40.03;27.55;;;;;;;;;;5092239;28;20204;-78
2021/11/11 17:43:19;;;;;;;50.42;28.27;;;;;;;;;;5093432;28;20192;-80
2021/11/11 17:45:51;;;;;;;38.55;29.05;;;;;;;;;;5093809;28;20225;-78
2021/11/11 17:48:20;;;;;;;47.75;28.95;;;;;;;;;;5094507;28;20231;-80
2021/11/11 17:50:55;;;;;;;46.92;28.60;;;;;;;;;;5093194;28;20203;-79